Time;durP1;ratioP1;P1;durP2;ratioP2;P2;SDS_P1;SDS_P2;PMS_P1;PMS_P2;Temp;Humidity;BMP_temperature;BMP_pressure;BME280_temperature;BME280_humidity;BME280_pressure;Samples;Min_cycle;Max_cycle;Signal;HPM_P1;HPM_P2
2022/10/30 00:00:16;;;;;;;10.90;4.63;;;;;;;17.62;68.60;101628.34;5092557;28;20052;-67
2022/10/30 00:02:46;;;;;;;12.23;4.72;;;;;;;17.61;68.78;101632.16;5089051;28;20052;-67
2022/10/30 00:05:14;;;;;;;9.55;4.97;;;;;;;17.60;68.55;101626.94;5090058;28;20044;-67
2022/10/30 00:07:42;;;;;;;9.75;5.18;;;;;;;17.59;68.66;101639.72;5095910;28;20044;-67
2022/10/30 00:10:10;;;;;;;9.43;5.20;;;;;;;17.57;68.69;101634.53;5084615;28;20058;-67
2022/10/30 00:12:38;;;;;;;8.98;4.95;;;;;;;17.55;68.56;101635.84;5091233;28;20058;-67
2022/10/30 00:15:06;;;;;;;11.52;5.18;;;;;;;17.56;68.55;101632.88;5086589;28;20581;-67
2022/10/30 00:17:35;;;;;;;11.43;5.07;;;;;;;17.54;68.30;101629.59;5089700;28;20052;-67
2022/10/30 00:20:04;;;;;;;10.93;4.70;;;;;;;17.55;68.52;101638.56;5084547;28;20158;-67
2022/10/30 00:22:31;;;;;;;12.20;4.75;;;;;;;17.53;68.65;101638.00;5092647;28;20107;-67
2022/10/30 00:24:59;;;;;;;9.27;4.30;;;;;;;17.52;68.59;101631.75;5099179;28;20078;-68
2022/10/30 00:27:27;;;;;;;10.43;4.95;;;;;;;17.50;68.42;101642.03;5092695;28;20482;-67
2022/10/30 00:29:55;;;;;;;11.07;5.40;;;;;;;17.49;68.47;101642.28;5085239;28;20049;-67
2022/10/30 00:32:22;;;;;;;11.02;5.05;;;;;;;17.47;68.37;101625.41;5098130;28;20052;-68
2022/10/30 00:34:51;;;;;;;10.32;5.30;;;;;;;17.45;68.33;101636.53;5093243;28;20068;-67
2022/10/30 00:37:19;;;;;;;11.93;4.90;;;;;;;17.44;68.60;101626.72;5096653;28;20401;-67
2022/10/30 00:39:47;;;;;;;11.55;4.55;;;;;;;17.43;68.53;101625.06;5088955;28;20390;-68
2022/10/30 00:42:16;;;;;;;11.38;5.88;;;;;;;17.40;68.51;101624.75;5090096;28;20040;-68
2022/10/30 00:44:47;;;;;;;9.15;4.50;;;;;;;17.40;68.49;101622.03;5094716;28;20049;-67
2022/10/30 00:47:19;;;;;;;11.32;4.82;;;;;;;17.37;68.46;101620.63;5092568;28;20059;-68
2022/10/30 00:49:57;;;;;;;9.02;4.78;;;;;;;17.37;68.30;101628.78;5094602;28;20173;-68
2022/10/30 00:52:28;;;;;;;11.35;4.38;;;;;;;17.36;68.47;101613.56;5102542;28;20044;-67
2022/10/30 00:54:58;;;;;;;14.25;5.05;;;;;;;17.35;68.37;101621.97;5099688;28;20410;-67
2022/10/30 00:57:26;;;;;;;11.73;5.28;;;;;;;17.33;68.44;101624.94;5099529;28;20044;-68
2022/10/30 00:59:54;;;;;;;12.27;5.32;;;;;;;17.32;68.55;101612.44;5090969;28;20060;-67
2022/10/30 01:02:22;;;;;;;14.32;4.93;;;;;;;17.30;68.57;101620.00;5092823;28;20052;-68
2022/10/30 01:04:54;;;;;;;9.48;5.28;;;;;;;17.30;68.57;101621.91;5094742;28;20056;-67
2022/10/30 01:07:21;;;;;;;11.50;5.28;;;;;;;17.28;68.46;101616.72;5095172;28;20085;-67
2022/10/30 01:09:49;;;;;;;13.15;4.57;;;;;;;17.26;68.21;101613.44;5086998;28;20058;-67
2022/10/30 01:12:17;;;;;;;8.60;4.90;;;;;;;17.25;68.38;101617.22;5094869;28;20389;-67
2022/10/30 01:14:49;;;;;;;9.68;4.47;;;;;;;17.23;68.29;101622.06;5096447;28;20058;-67
2022/10/30 01:17:41;;;;;;;11.20;5.22;;;;;;;17.21;68.14;101625.03;5101438;28;20121;-68
2022/10/30 01:20:29;;;;;;;9.30;5.22;;;;;;;17.21;68.16;101625.03;5098664;28;20062;-67
2022/10/30 01:23:14;;;;;;;10.98;4.50;;;;;;;17.20;68.23;101631.53;5096792;28;20044;-68
2022/10/30 01:26:05;;;;;;;10.98;5.32;;;;;;;17.20;67.96;101638.88;5099219;28;20053;-67
2022/10/30 01:28:48;;;;;;;10.70;5.95;;;;;;;17.18;68.20;101630.13;5094254;28;20402;-68
2022/10/30 01:31:26;;;;;;;11.18;4.88;;;;;;;17.17;68.19;101632.03;5097036;28;20121;-68
2022/10/30 01:34:05;;;;;;;11.77;5.20;;;;;;;17.16;68.01;101633.09;5091657;28;20048;-67
2022/10/30 01:36:38;;;;;;;10.70;4.70;;;;;;;17.14;68.10;101629.81;5096122;28;20063;-67
2022/10/30 01:39:11;;;;;;;10.10;4.80;;;;;;;17.13;68.02;101630.06;5093540;28;20047;-67
2022/10/30 01:41:39;;;;;;;16.10;5.28;;;;;;;17.12;67.96;101637.38;5093373;28;20052;-68
2022/10/30 01:44:12;;;;;;;9.20;4.35;;;;;;;17.11;68.19;101635.72;5087324;28;20058;-67
2022/10/30 01:46:51;;;;;;;12.95;5.53;;;;;;;17.08;68.15;101632.69;5098987;28;20139;-67
2022/10/30 01:49:38;;;;;;;14.73;5.22;;;;;;;17.09;68.01;101642.47;5102236;28;20050;-68
2022/10/30 01:52:18;;;;;;;10.48;4.82;;;;;;;17.07;67.99;101640.00;5088666;28;20052;-67
2022/10/30 01:54:53;;;;;;;10.75;4.75;;;;;;;17.06;67.91;101651.13;5098180;28;20611;-68
2022/10/30 01:57:34;;;;;;;12.07;4.55;;;;;;;17.05;67.95;101652.19;5096012;28;20048;-67
2022/10/30 02:00:05;;;;;;;10.68;5.00;;;;;;;17.03;67.92;101646.19;5097630;28;20052;-67
2022/10/30 02:02:33;;;;;;;13.50;4.80;;;;;;;17.02;68.03;101645.34;5103951;28;20063;-67
2022/10/30 02:05:01;;;;;;;12.23;5.63;;;;;;;17.01;67.87;101643.72;5091032;28;20040;-68
2022/10/30 02:07:30;;;;;;;13.48;5.43;;;;;;;17.00;67.86;101655.63;5092059;28;20135;-68
2022/10/30 02:09:59;;;;;;;11.43;4.60;;;;;;;16.99;68.04;101651.28;5090547;28;20068;-67
2022/10/30 02:12:26;;;;;;;9.48;4.85;;;;;;;16.95;67.92;101649.28;5091576;28;20040;-67
2022/10/30 02:14:57;;;;;;;12.25;5.55;;;;;;;16.96;67.86;101648.22;5097795;28;20461;-67
2022/10/30 02:17:27;;;;;;;9.18;5.00;;;;;;;16.94;67.90;101648.47;5089812;28;20070;-67
2022/10/30 02:19:54;;;;;;;16.63;5.13;;;;;;;16.94;67.91;101650.38;5087857;28;20123;-67
2022/10/30 02:22:24;;;;;;;10.95;4.65;;;;;;;16.92;67.85;101647.88;5090338;28;20059;-67
2022/10/30 02:24:51;;;;;;;10.13;4.82;;;;;;;16.89;68.00;101645.66;5086980;28;20056;-67
2022/10/30 02:27:19;;;;;;;11.70;5.35;;;;;;;16.89;67.85;101653.81;5094327;28;20051;-67
2022/10/30 02:29:48;;;;;;;8.73;4.30;;;;;;;16.87;68.03;101655.94;5085321;28;20059;-68
2022/10/30 02:32:15;;;;;;;11.93;5.85;;;;;;;16.85;68.00;101653.47;5089894;28;20063;-67
2022/10/30 02:34:43;;;;;;;10.98;4.85;;;;;;;16.83;67.95;101652.88;5094292;28;20123;-68
2022/10/30 02:37:11;;;;;;;10.98;4.85;;;;;;;16.82;68.02;101655.84;5096186;28;20064;-67
2022/10/30 02:39:40;;;;;;;13.02;4.38;;;;;;;16.81;67.87;101660.47;5085694;28;20071;-67
2022/10/30 02:42:07;;;;;;;8.60;5.20;;;;;;;16.79;67.88;101657.16;5093896;28;20066;-68
2022/10/30 02:44:35;;;;;;;14.85;5.13;;;;;;;16.79;68.08;101664.47;5090575;28;20133;-67
2022/10/30 02:47:03;;;;;;;10.52;4.93;;;;;;;16.76;67.93;101659.53;5089354;28;20058;-68
2022/10/30 02:49:31;;;;;;;11.57;5.03;;;;;;;16.75;67.91;101650.56;5097291;28;20047;-67
2022/10/30 02:51:58;;;;;;;10.13;4.95;;;;;;;16.75;67.92;101660.59;5090159;28;20048;-68
2022/10/30 02:54:26;;;;;;;19.90;5.57;;;;;;;16.66;67.83;101652.03;5091054;28;20363;-68
2022/10/30 02:56:55;;;;;;;9.65;5.40;;;;;;;16.71;67.88;101654.84;5089213;28;20045;-68
2022/10/30 02:59:23;;;;;;;14.20;5.22;;;;;;;16.70;67.85;101653.19;5084177;28;20055;-67
2022/10/30 03:01:50;;;;;;;10.60;4.88;;;;;;;16.70;67.86;101660.50;5091075;28;20041;-67
2022/10/30 03:04:18;;;;;;;13.35;5.05;;;;;;;16.70;67.77;101655.06;5094907;28;20040;-67
2022/10/30 03:06:46;;;;;;;10.50;5.80;;;;;;;16.68;67.74;101649.06;5095498;28;20052;-68
2022/10/30 03:09:13;;;;;;;9.07;4.60;;;;;;;16.66;67.90;101657.44;5094503;28;20373;-67
2022/10/30 03:11:43;;;;;;;11.20;4.90;;;;;;;16.66;67.77;101652.03;5100796;28;20040;-67
2022/10/30 03:14:12;;;;;;;9.88;5.03;;;;;;;16.66;67.86;101653.91;5091225;28;20050;-67
2022/10/30 03:16:40;;;;;;;11.57;5.72;;;;;;;16.64;67.81;101648.69;5093591;28;20045;-67
2022/10/30 03:19:08;;;;;;;11.93;5.68;;;;;;;16.63;67.73;101649.75;5097888;28;20044;-67
2022/10/30 03:21:36;;;;;;;12.45;4.82;;;;;;;16.63;67.75;101654.38;5096229;28;20049;-67
2022/10/30 03:24:04;;;;;;;11.80;5.00;;;;;;;16.62;67.84;101658.97;5088478;28;20056;-67
2022/10/30 03:26:32;;;;;;;12.52;4.70;;;;;;;16.60;67.62;101652.97;5089158;28;20052;-67
2022/10/30 03:28:59;;;;;;;10.13;5.03;;;;;;;16.59;67.88;101663.00;5093759;28;20044;-68
2022/10/30 03:31:31;;;;;;;13.77;6.25;;;;;;;16.59;67.76;101654.03;5086673;28;20048;-68
2022/10/30 03:33:58;;;;;;;12.52;4.95;;;;;;;16.58;67.59;101652.38;5085306;28;20056;-67
2022/10/30 03:36:26;;;;;;;9.55;5.15;;;;;;;16.57;67.75;101654.28;5094108;28;20051;-68
2022/10/30 03:38:54;;;;;;;10.77;5.25;;;;;;;16.56;67.93;101646.38;5092748;28;20047;-67
2022/10/30 03:41:21;;;;;;;13.10;5.75;;;;;;;16.55;67.91;101642.00;5094493;28;20045;-68
2022/10/30 03:43:49;;;;;;;11.93;5.38;;;;;;;16.54;67.84;101643.91;5092925;28;20052;-68
2022/10/30 03:46:17;;;;;;;13.50;5.00;;;;;;;16.54;67.97;101648.50;5094362;28;20044;-68
2022/10/30 03:48:48;;;;;;;14.95;5.57;;;;;;;16.53;68.01;101646.84;5096243;28;20052;-67
2022/10/30 03:51:17;;;;;;;10.70;5.25;;;;;;;16.53;68.06;101647.69;5090220;28;20040;-67
2022/10/30 03:53:44;;;;;;;10.75;4.60;;;;;;;16.51;67.98;101652.53;5090406;28;20048;-67
2022/10/30 03:56:12;;;;;;;10.07;4.00;;;;;;;16.49;67.99;101657.38;5098994;28;20044;-68
2022/10/30 03:58:40;;;;;;;9.95;5.10;;;;;;;16.49;68.06;101648.41;5089205;28;20044;-68
2022/10/30 04:01:09;;;;;;;8.30;4.38;;;;;;;16.48;68.01;101652.19;5086305;28;20066;-68
2022/10/30 04:03:37;;;;;;;9.98;4.90;;;;;;;16.47;67.95;101650.53;5094119;28;20048;-67
2022/10/30 04:06:06;;;;;;;10.75;4.88;;;;;;;16.45;67.94;101652.66;5097047;28;20070;-68
2022/10/30 04:08:34;;;;;;;14.85;4.30;;;;;;;16.44;67.97;101649.13;5093950;28;20052;-67
2022/10/30 04:11:01;;;;;;;9.05;5.38;;;;;;;16.43;67.95;101649.38;5088108;28;20044;-67
2022/10/30 04:13:29;;;;;;;11.50;4.43;;;;;;;16.43;67.97;101657.50;5090792;28;20051;-67
2022/10/30 04:15:57;;;;;;;13.18;4.95;;;;;;;16.40;67.89;101666.94;5100465;28;20051;-67
2022/10/30 04:18:25;;;;;;;10.60;4.63;;;;;;;16.40;67.89;101668.84;5083913;28;20425;-67
2022/10/30 04:20:53;;;;;;;12.55;4.70;;;;;;;16.40;68.12;101663.41;5090756;28;20056;-67
2022/10/30 04:23:22;;;;;;;10.13;4.55;;;;;;;16.36;67.98;101651.41;5083941;28;20055;-68
2022/10/30 04:25:50;;;;;;;13.27;5.07;;;;;;;16.37;68.07;101656.56;5087908;28;20051;-67
2022/10/30 04:28:20;;;;;;;11.60;4.63;;;;;;;16.37;67.95;101653.03;5091513;28;20044;-68
2022/10/30 04:30:47;;;;;;;10.43;4.85;;;;;;;16.35;68.06;101666.84;5087615;28;20050;-68
2022/10/30 04:33:15;;;;;;;11.00;4.60;;;;;;;16.35;68.04;101663.31;5091008;28;20051;-67
2022/10/30 04:35:43;;;;;;;9.02;5.10;;;;;;;16.34;67.96;101667.09;5086766;28;20052;-67
2022/10/30 04:38:12;;;;;;;11.52;4.85;;;;;;;16.30;68.08;101655.06;5097666;28;20055;-67
2022/10/30 04:40:43;;;;;;;10.55;4.57;;;;;;;16.31;67.99;101662.97;5098466;28;20070;-67
2022/10/30 04:43:12;;;;;;;11.15;5.35;;;;;;;16.31;68.04;101654.00;5096089;28;20064;-67
2022/10/30 04:45:41;;;;;;;10.07;5.18;;;;;;;16.29;67.97;101648.81;5089662;28;20044;-68
2022/10/30 04:48:11;;;;;;;13.88;4.57;;;;;;;16.29;67.96;101648.81;5089757;28;20065;-67
2022/10/30 04:50:39;;;;;;;12.77;5.07;;;;;;;16.27;68.02;101654.47;5100012;28;20054;-67
2022/10/30 04:53:09;;;;;;;8.27;4.35;;;;;;;16.27;68.00;101642.81;5092372;28;20048;-68
2022/10/30 04:55:37;;;;;;;11.77;5.00;;;;;;;16.25;68.00;101643.03;5090110;28;20056;-68
2022/10/30 04:58:08;;;;;;;17.52;5.53;;;;;;;16.24;68.01;101640.56;5089399;28;20055;-69
2022/10/30 05:00:36;;;;;;;9.73;4.63;;;;;;;16.24;67.99;101627.00;5091647;28;20040;-67
2022/10/30 05:03:04;;;;;;;14.23;5.30;;;;;;;16.23;68.07;101622.66;5096257;28;20052;-68
2022/10/30 05:05:32;;;;;;;9.05;4.75;;;;;;;16.22;67.98;101621.00;5085219;28;20074;-68
2022/10/30 05:08:00;;;;;;;14.20;4.75;;;;;;;16.20;67.99;101621.25;5095163;28;20048;-67
2022/10/30 05:10:28;;;;;;;13.35;5.07;;;;;;;16.20;67.98;101620.41;5086062;28;20063;-68
2022/10/30 05:12:58;;;;;;;13.45;5.15;;;;;;;16.20;68.02;101620.41;5088811;28;20056;-68
2022/10/30 05:15:27;;;;;;;13.20;5.00;;;;;;;16.17;68.10;101624.44;5087850;28;20078;-68
2022/10/30 05:17:55;;;;;;;7.78;4.50;;;;;;;16.17;68.13;101624.44;5092872;28;20512;-67
2022/10/30 05:20:23;;;;;;;10.75;4.78;;;;;;;16.17;68.19;101623.63;5088790;28;20060;-68
2022/10/30 05:22:54;;;;;;;11.95;5.03;;;;;;;16.16;68.13;101622.78;5091025;28;20044;-68
2022/10/30 05:25:22;;;;;;;16.48;5.10;;;;;;;16.15;68.14;101621.13;5086170;28;20512;-68
2022/10/30 05:27:50;;;;;;;8.73;4.57;;;;;;;16.15;68.03;101626.56;5083952;28;20072;-68
2022/10/30 05:30:18;;;;;;;11.30;4.47;;;;;;;16.14;68.13;101626.81;5087435;28;20049;-68
2022/10/30 05:32:47;;;;;;;9.65;4.45;;;;;;;16.13;68.18;101625.97;5093539;28;20055;-68
2022/10/30 05:35:14;;;;;;;8.80;5.03;;;;;;;16.11;68.16;101625.41;5090820;28;20048;-68
2022/10/30 05:37:42;;;;;;;11.38;4.68;;;;;;;16.11;68.06;101630.81;5101972;28;20052;-68
2022/10/30 05:40:11;;;;;;;12.75;4.70;;;;;;;16.10;68.04;101634.59;5088691;28;20040;-68
2022/10/30 05:42:45;;;;;;;9.45;4.97;;;;;;;16.10;68.03;101631.88;5092559;28;20067;-68
2022/10/30 05:45:12;;;;;;;10.93;4.78;;;;;;;16.08;68.13;101634.00;5103101;28;20050;-68
2022/10/30 05:47:40;;;;;;;8.73;4.55;;;;;;;16.07;68.04;101631.53;5091565;28;20049;-68
2022/10/30 05:50:11;;;;;;;10.30;4.60;;;;;;;16.06;68.13;101622.56;5092527;28;20048;-68
2022/10/30 05:52:39;;;;;;;9.70;4.18;;;;;;;16.05;68.07;101637.19;5089237;28;20051;-68
2022/10/30 05:55:07;;;;;;;10.68;5.15;;;;;;;16.03;67.97;101642.03;5095613;28;20048;-68
2022/10/30 05:57:34;;;;;;;9.93;4.35;;;;;;;16.03;68.15;101636.63;5091810;28;20050;-68
2022/10/30 06:00:02;;;;;;;11.85;4.85;;;;;;;16.02;68.01;101637.69;5099736;28;20036;-68
2022/10/30 06:02:30;;;;;;;9.15;5.15;;;;;;;16.00;68.05;101631.66;5094523;28;20048;-68
2022/10/30 06:04:58;;;;;;;12.25;5.57;;;;;;;16.00;67.93;101634.38;5090716;28;20075;-68
2022/10/30 06:07:27;;;;;;;13.25;5.13;;;;;;;15.99;67.85;101629.19;5097410;28;20052;-68
2022/10/30 06:09:54;;;;;;;10.60;4.95;;;;;;;15.98;67.85;101633.78;5085813;28;20048;-68
2022/10/30 06:12:22;;;;;;;11.10;5.40;;;;;;;15.95;67.90;101637.81;5099352;28;20130;-67
2022/10/30 06:14:50;;;;;;;12.82;5.05;;;;;;;15.95;67.92;101639.69;5091187;28;20058;-67
2022/10/30 06:17:17;;;;;;;11.27;5.47;;;;;;;15.94;67.86;101643.47;4733799;28;10000103;-67
2022/10/30 06:19:45;;;;;;;11.95;5.30;;;;;;;15.93;67.91;101639.09;5085311;28;20400;-67
2022/10/30 06:22:13;;;;;;;9.57;4.60;;;;;;;15.92;67.76;101638.28;5098600;28;20064;-67
2022/10/30 06:24:42;;;;;;;14.00;5.18;;;;;;;15.91;67.68;101635.81;5090936;28;20052;-67
2022/10/30 06:27:09;;;;;;;10.73;4.65;;;;;;;15.89;67.77;101627.91;5092790;28;20052;-67
2022/10/30 06:29:37;;;;;;;9.80;5.63;;;;;;;15.88;67.65;101626.25;5088688;28;20415;-67
2022/10/30 06:32:05;;;;;;;9.23;4.93;;;;;;;15.86;67.73;101628.38;5093705;28;20059;-67
2022/10/30 06:34:33;;;;;;;13.80;4.72;;;;;;;15.86;67.68;101628.38;5082318;28;20049;-67
2022/10/30 06:37:01;;;;;;;9.75;5.40;;;;;;;15.85;67.77;101631.34;5093604;28;20048;-67
2022/10/30 06:39:29;;;;;;;14.57;4.78;;;;;;;15.85;67.74;101629.44;5096788;28;20137;-67
2022/10/30 06:41:58;;;;;;;9.55;4.68;;;;;;;15.83;67.72;101633.47;5077375;28;20040;-67
2022/10/30 06:44:25;;;;;;;10.48;5.25;;;;;;;15.82;67.60;101632.63;5087613;28;20052;-67
2022/10/30 06:46:53;;;;;;;13.07;5.25;;;;;;;15.82;67.71;101623.69;5084486;28;20059;-67
2022/10/30 06:49:21;;;;;;;8.00;4.32;;;;;;;15.80;67.71;101625.81;5091170;28;20358;-67
2022/10/30 06:51:50;;;;;;;10.10;5.05;;;;;;;15.80;67.86;101623.91;5084095;28;20058;-67
2022/10/30 06:54:18;;;;;;;10.07;4.45;;;;;;;15.78;67.83;101625.22;5094146;28;20051;-68
2022/10/30 06:56:50;;;;;;;7.70;4.60;;;;;;;15.78;67.60;101617.09;5093590;28;20079;-67
2022/10/30 06:59:19;;;;;;;11.48;5.47;;;;;;;15.77;67.64;101631.69;5084799;28;20048;-67
2022/10/30 07:01:47;;;;;;;10.25;5.32;;;;;;;15.77;67.60;101623.56;5084185;28;20044;-67
2022/10/30 07:04:15;;;;;;;10.25;5.15;;;;;;;15.76;67.70;101624.63;5090017;28;20083;-67
2022/10/30 07:06:42;;;;;;;10.43;5.22;;;;;;;15.75;67.76;101628.41;5088450;28;20059;-67
2022/10/30 07:09:10;;;;;;;10.48;4.90;;;;;;;15.73;67.71;101623.22;5089261;28;20066;-67
2022/10/30 07:11:41;;;;;;;14.48;4.75;;;;;;;15.74;67.79;101615.91;5088446;28;20060;-67
2022/10/30 07:14:08;;;;;;;8.20;4.07;;;;;;;15.72;67.71;101609.91;5091663;28;20041;-67
2022/10/30 07:16:37;;;;;;;9.15;4.53;;;;;;;15.72;67.91;101612.59;5093866;28;20049;-67
2022/10/30 07:19:05;;;;;;;13.65;4.82;;;;;;;15.71;67.85;101617.22;5086615;28;20052;-67
2022/10/30 07:21:33;;;;;;;11.02;4.68;;;;;;;15.70;67.82;101620.16;5086575;28;20056;-69
2022/10/30 07:24:01;;;;;;;14.73;5.05;;;;;;;15.68;67.84;101622.28;5082936;28;20044;-70
2022/10/30 07:26:28;;;;;;;8.90;4.22;;;;;;;15.61;67.86;101606.13;5086686;28;20359;-66
2022/10/30 07:28:56;;;;;;;7.55;4.53;;;;;;;15.67;67.87;101624.16;5084869;28;20044;-68
2022/10/30 07:31:24;;;;;;;10.10;4.25;;;;;;;15.68;67.90;101620.38;5089921;28;20052;-66
2022/10/30 07:34:10;;;;;;;11.63;4.75;;;;;;;15.68;67.74;101622.28;5089916;28;20039;-67
2022/10/30 07:36:38;;;;;;;12.90;4.75;;;;;;;15.67;67.95;101626.03;5091249;28;20055;-66
2022/10/30 07:39:06;;;;;;;12.70;4.80;;;;;;;15.65;67.99;101623.56;5088883;28;20055;-66
2022/10/30 07:41:33;;;;;;;9.10;4.60;;;;;;;15.66;67.78;101624.41;5086656;28;20054;-66
2022/10/30 07:44:01;;;;;;;13.00;5.40;;;;;;;15.64;67.98;101621.94;5086092;28;20049;-66
2022/10/30 07:46:29;;;;;;;14.00;5.20;;;;;;;15.63;68.04;101623.81;5087380;28;20036;-65
2022/10/30 07:48:56;;;;;;;9.75;4.90;;;;;;;15.62;68.29;101613.22;5084869;28;20063;-65
2022/10/30 07:51:25;;;;;;;16.75;5.45;;;;;;;15.63;68.06;101614.84;5086838;28;20044;-66
2022/10/30 07:53:53;;;;;;;10.38;5.10;;;;;;;15.64;67.87;101619.22;5087728;28;20064;-66
2022/10/30 07:56:21;;;;;;;10.85;4.70;;;;;;;15.61;68.06;101617.81;5081343;28;20052;-66
2022/10/30 07:58:49;;;;;;;11.50;5.38;;;;;;;15.61;67.99;101620.50;5087927;28;20064;-67
2022/10/30 08:01:16;;;;;;;11.10;5.10;;;;;;;15.60;68.23;101618.88;5086735;28;20040;-64
2022/10/30 08:03:44;;;;;;;7.38;4.50;;;;;;;15.60;68.29;101618.88;5082961;28;20581;-67
2022/10/30 08:06:12;;;;;;;9.43;4.32;;;;;;;15.60;68.20;101612.66;5083193;28;20055;-66
2022/10/30 08:08:41;;;;;;;10.25;4.40;;;;;;;15.59;68.16;101619.13;5083789;28;20504;-66
2022/10/30 08:11:10;;;;;;;9.77;4.55;;;;;;;15.59;68.15;101613.72;5087301;28;20048;-66
2022/10/30 08:13:38;;;;;;;11.55;3.85;;;;;;;15.60;68.34;101618.06;5101188;28;20047;-66
2022/10/30 08:16:06;;;;;;;9.75;4.15;;;;;;;15.59;68.33;101622.66;5088118;28;20052;-66
2022/10/30 08:18:34;;;;;;;9.45;4.82;;;;;;;15.52;68.48;101616.50;5087693;28;20044;-67
2022/10/30 08:21:01;;;;;;;8.15;4.70;;;;;;;15.59;68.27;101611.00;5080230;28;20299;-66
2022/10/30 08:23:29;;;;;;;9.40;4.55;;;;;;;15.59;68.39;101608.28;5081154;28;20742;-70
2022/10/30 08:26:00;;;;;;;10.98;6.10;;;;;;;15.59;68.36;101605.59;5092709;28;20083;-67
2022/10/30 08:28:28;;;;;;;9.27;4.40;;;;;;;15.56;68.49;101608.72;5081007;28;20048;-65
2022/10/30 08:31:00;;;;;;;11.50;4.68;;;;;;;15.54;68.59;101617.09;5086116;28;20056;-66
2022/10/30 08:33:28;;;;;;;13.77;4.97;;;;;;;15.59;68.48;101625.38;5087320;28;20131;-67
2022/10/30 08:35:57;;;;;;;8.02;4.25;;;;;;;15.59;68.59;101625.38;5081087;28;20048;-69
2022/10/30 08:38:26;;;;;;;7.32;4.43;;;;;;;15.60;68.63;101623.50;5087249;28;20058;-67
2022/10/30 08:40:54;;;;;;;8.55;4.47;;;;;;;15.59;68.83;101619.13;5080485;28;20063;-69
2022/10/30 08:43:24;;;;;;;10.52;4.22;;;;;;;15.59;68.65;101606.41;5084850;28;20063;-73
2022/10/30 08:45:51;;;;;;;11.02;4.50;;;;;;;15.59;68.58;101601.00;5091251;28;20048;-69
2022/10/30 08:48:19;;;;;;;6.57;3.85;;;;;;;15.61;68.77;101611.56;5081928;28;20045;-76
2022/10/30 08:50:47;;;;;;;10.55;4.57;;;;;;;15.61;68.59;101617.81;5088430;28;20048;-70
2022/10/30 08:53:15;;;;;;;7.60;4.68;;;;;;;15.60;68.61;101616.16;5087984;28;20052;-67
2022/10/30 08:55:43;;;;;;;11.80;4.20;;;;;;;15.62;68.72;101622.16;5087124;28;20083;-69
2022/10/30 08:58:11;;;;;;;8.43;4.30;;;;;;;15.62;68.83;101619.44;5093149;28;20058;-73
2022/10/30 09:00:40;;;;;;;9.55;4.15;;;;;;;15.61;68.82;101612.38;5083392;28;20052;-70
2022/10/30 09:03:08;;;;;;;9.63;4.43;;;;;;;15.62;68.86;101616.75;5081673;28;20048;-71
2022/10/30 09:05:36;;;;;;;7.88;4.38;;;;;;;15.62;68.96;101616.75;5087745;28;20050;-69
2022/10/30 09:08:04;;;;;;;6.82;4.25;;;;;;;15.63;68.83;101609.44;5094106;28;20166;-70
2022/10/30 09:10:32;;;;;;;8.35;4.60;;;;;;;15.63;68.96;101604.03;5091333;28;20064;-70
2022/10/30 09:13:02;;;;;;;9.27;4.30;;;;;;;15.65;69.07;101603.78;5084122;28;20575;-70
2022/10/30 09:15:29;;;;;;;10.85;4.97;;;;;;;15.68;68.99;101611.44;5091121;28;20108;-70
2022/10/30 09:18:00;;;;;;;9.10;4.80;;;;;;;15.68;69.18;101606.03;5087713;28;21698;-69
2022/10/30 09:20:29;;;;;;;10.40;4.75;;;;;;;15.68;69.17;101608.72;5089530;28;20040;-69
2022/10/30 09:22:57;;;;;;;5.95;4.07;;;;;;;15.69;69.17;101605.78;5084360;28;20062;-69
2022/10/30 09:25:26;;;;;;;6.30;3.92;;;;;;;15.71;69.22;101602.84;5089357;28;20052;-70
2022/10/30 09:27:53;;;;;;;9.65;4.32;;;;;;;15.72;69.16;101599.88;5091540;28;20138;-69
2022/10/30 09:30:21;;;;;;;7.75;3.97;;;;;;;15.72;69.13;101604.47;5090472;28;20044;-68
2022/10/30 09:32:54;;;;;;;7.20;3.80;;;;;;;15.74;69.30;101602.34;5086344;28;20049;-68
2022/10/30 09:35:25;;;;;;;8.00;3.80;;;;;;;15.75;69.21;101599.41;5089259;28;20094;-70
2022/10/30 09:37:53;;;;;;;10.80;4.10;;;;;;;15.76;69.33;101611.91;5091773;28;20052;-68
2022/10/30 09:40:28;;;;;;;6.93;4.28;;;;;;;15.78;69.42;101608.94;5095220;28;20048;-69
2022/10/30 09:43:04;;;;;;;8.82;4.28;;;;;;;15.79;69.55;101608.72;5084065;28;20061;-67
2022/10/30 09:45:56;;;;;;;11.18;4.75;;;;;;;15.82;69.66;101602.81;5090156;28;20054;-68
2022/10/30 09:48:41;;;;;;;8.43;4.82;;;;;;;15.88;70.00;101617.31;5086574;28;20052;-68
2022/10/30 09:51:25;;;;;;;11.32;3.97;;;;;;;15.90;70.05;101623.31;5089176;28;20061;-70
2022/10/30 09:54:05;;;;;;;9.10;4.55;;;;;;;15.91;69.86;101623.06;5090790;28;20044;-70
2022/10/30 09:56:39;;;;;;;11.55;4.80;;;;;;;15.92;70.02;101634.75;5086468;28;20057;-69
2022/10/30 09:59:22;;;;;;;10.23;4.65;;;;;;;15.94;70.24;101622.59;5087359;28;20070;-69
2022/10/30 10:01:54;;;;;;;7.18;4.40;;;;;;;15.98;70.42;101624.84;5087640;28;20048;-69
2022/10/30 10:04:28;;;;;;;17.25;4.20;;;;;;;16.00;70.45;101623.53;5082978;28;20071;-70
2022/10/30 10:07:02;;;;;;;9.50;4.40;;;;;;;16.01;70.46;101629.78;5086220;28;20119;-70
2022/10/30 10:09:36;;;;;;;9.13;4.57;;;;;;;16.03;70.42;101627.66;5085571;28;20271;-70
2022/10/30 10:12:09;;;;;;;10.20;4.78;;;;;;;16.04;70.36;101630.13;5087737;28;20119;-69
2022/10/30 10:14:40;;;;;;;10.27;4.10;;;;;;;16.05;70.40;101626.34;5094090;28;20056;-68
2022/10/30 10:17:13;;;;;;;11.38;4.82;;;;;;;16.07;70.55;101616.09;5087443;28;20063;-69
2022/10/30 10:19:48;;;;;;;10.18;3.58;;;;;;;16.08;70.56;101609.59;5084180;28;20477;-69
2022/10/30 10:22:21;;;;;;;7.15;3.50;;;;;;;16.11;70.66;101606.41;5091184;28;20052;-68
2022/10/30 10:24:49;;;;;;;5.75;4.25;;;;;;;16.13;70.81;101615.13;5091510;28;20052;-68
2022/10/30 10:27:32;;;;;;;8.00;4.10;;;;;;;16.15;70.77;101618.44;5083229;28;20056;-68
2022/10/30 10:30:03;;;;;;;12.43;4.63;;;;;;;16.09;70.72;101596.88;5088852;28;20067;-69
2022/10/30 10:32:51;;;;;;;12.13;4.70;;;;;;;16.18;70.82;101600.84;5090147;28;20049;-68
2022/10/30 10:35:37;;;;;;;8.13;3.75;;;;;;;16.23;70.76;101600.97;5087181;28;20079;-69
2022/10/30 10:38:18;;;;;;;8.90;4.05;;;;;;;16.24;70.94;101603.44;5086299;28;20064;-70
2022/10/30 10:40:57;;;;;;;9.55;4.72;;;;;;;16.26;70.75;101604.00;5089549;28;20053;-73
2022/10/30 10:43:36;;;;;;;10.60;3.75;;;;;;;16.28;70.85;101595.63;5090169;28;20041;-68
2022/10/30 10:46:24;;;;;;;9.27;4.07;;;;;;;16.32;71.12;101604.94;5088342;28;20066;-68
2022/10/30 10:49:10;;;;;;;9.90;4.45;;;;;;;16.34;70.88;101599.25;5091279;28;20044;-68
2022/10/30 10:51:41;;;;;;;9.23;3.95;;;;;;;16.36;70.90;101605.28;5090506;28;20165;-68
2022/10/30 10:54:15;;;;;;;7.30;3.80;;;;;;;16.36;70.91;101600.66;5090435;28;20044;-66
2022/10/30 10:56:47;;;;;;;9.85;4.75;;;;;;;16.39;70.94;101607.50;5092477;28;20044;-69
2022/10/30 10:59:19;;;;;;;6.97;4.15;;;;;;;16.40;71.09;101618.13;5089905;28;20052;-67
2022/10/30 11:01:53;;;;;;;10.75;4.85;;;;;;;16.43;71.06;101619.53;5090921;28;20386;-70
2022/10/30 11:04:30;;;;;;;8.02;3.78;;;;;;;16.43;71.18;101611.38;5088402;28;20080;-68
2022/10/30 11:06:58;;;;;;;;;;;;;;;16.46;71.01;101613.59;5098751;28;20048;-67
2022/10/30 11:09:27;;;;;;;11.02;4.45;;;;;;;16.48;71.28;101608.75;5087458;28;19924;-67
2022/10/30 11:11:55;;;;;;;12.63;4.22;;;;;;;16.50;71.08;101599.31;5098249;28;20046;-67
2022/10/30 11:14:24;;;;;;;11.00;4.05;;;;;;;16.53;71.17;101598.00;5095609;28;20040;-67
2022/10/30 11:17:03;;;;;;;8.07;3.92;;;;;;;16.53;71.25;101590.69;5088094;28;20048;-68
2022/10/30 11:19:31;;;;;;;9.93;4.07;;;;;;;16.55;71.12;101591.28;5085235;28;20067;-67
2022/10/30 11:22:01;;;;;;;10.20;3.90;;;;;;;16.57;71.13;101593.75;5089456;28;20596;-69
2022/10/30 11:24:32;;;;;;;10.00;3.92;;;;;;;16.59;71.21;101591.59;5087496;28;20044;-66
2022/10/30 11:27:17;;;;;;;10.63;4.35;;;;;;;16.63;71.16;101594.66;5101861;28;20062;-66
2022/10/30 11:29:51;;;;;;;10.55;4.22;;;;;;;16.63;71.31;101584.63;5085322;28;20056;-65
2022/10/30 11:32:21;;;;;;;11.85;5.45;;;;;;;16.65;71.56;101582.53;5095450;28;20048;-65